sensor_id;sensor_type;location;lat;lon;timestamp;P1;durP1;ratioP1;P2;durP2;ratioP2
62861;SDS011;48953;53.110;5.592;2023-04-27T00:01:49;9.35;;;5.65;;
62861;SDS011;48953;53.110;5.592;2023-04-27T00:04:15;8.77;;;5.07;;
62861;SDS011;48953;53.110;5.592;2023-04-27T00:06:41;11.07;;;5.30;;
62861;SDS011;48953;53.110;5.592;2023-04-27T00:09:07;10.02;;;5.18;;
62861;SDS011;48953;53.110;5.592;2023-04-27T00:11:33;9.77;;;5.50;;
62861;SDS011;48953;53.110;5.592;2023-04-27T00:13:59;11.57;;;5.80;;
62861;SDS011;48953;53.110;5.592;2023-04-27T00:16:25;9.88;;;5.30;;
62861;SDS011;48953;53.110;5.592;2023-04-27T00:18:51;11.90;;;5.82;;
62861;SDS011;48953;53.110;5.592;2023-04-27T00:21:18;8.63;;;5.22;;
62861;SDS011;48953;53.110;5.592;2023-04-27T00:23:43;10.52;;;5.00;;
62861;SDS011;48953;53.110;5.592;2023-04-27T00:26:10;10.55;;;5.05;;
62861;SDS011;48953;53.110;5.592;2023-04-27T00:28:36;12.90;;;5.55;;
62861;SDS011;48953;53.110;5.592;2023-04-27T00:31:02;8.25;;;4.95;;
62861;SDS011;48953;53.110;5.592;2023-04-27T00:39:24;9.95;;;4.47;;
62861;SDS011;48953;53.110;5.592;2023-04-27T00:44:43;9.50;;;4.53;;
62861;SDS011;48953;53.110;5.592;2023-04-27T00:50:11;8.98;;;4.53;;
62861;SDS011;48953;53.110;5.592;2023-04-27T00:52:38;10.60;;;5.28;;
62861;SDS011;48953;53.110;5.592;2023-04-27T00:55:04;11.90;;;4.93;;
62861;SDS011;48953;53.110;5.592;2023-04-27T00:57:31;11.60;;;5.57;;
62861;SDS011;48953;53.110;5.592;2023-04-27T01:00:01;11.45;;;5.22;;
62861;SDS011;48953;53.110;5.592;2023-04-27T01:02:28;8.45;;;4.80;;
62861;SDS011;48953;53.110;5.592;2023-04-27T01:04:54;9.07;;;5.15;;
62861;SDS011;48953;53.110;5.592;2023-04-27T01:07:27;11.45;;;5.00;;
62861;SDS011;48953;53.110;5.592;2023-04-27T01:09:53;11.90;;;5.00;;
62861;SDS011;48953;53.110;5.592;2023-04-27T01:15:08;10.60;;;5.15;;
62861;SDS011;48953;53.110;5.592;2023-04-27T01:17:41;10.35;;;5.05;;
62861;SDS011;48953;53.110;5.592;2023-04-27T01:20:07;10.32;;;5.05;;
62861;SDS011;48953;53.110;5.592;2023-04-27T01:22:43;11.57;;;5.80;;
62861;SDS011;48953;53.110;5.592;2023-04-27T01:25:09;10.05;;;5.35;;
62861;SDS011;48953;53.110;5.592;2023-04-27T01:27:54;11.35;;;5.43;;
62861;SDS011;48953;53.110;5.592;2023-04-27T01:30:20;11.98;;;5.50;;
62861;SDS011;48953;53.110;5.592;2023-04-27T01:32:46;10.75;;;5.15;;
62861;SDS011;48953;53.110;5.592;2023-04-27T01:35:13;10.10;;;5.53;;
62861;SDS011;48953;53.110;5.592;2023-04-27T01:37:39;11.63;;;5.68;;
62861;SDS011;48953;53.110;5.592;2023-04-27T01:40:06;9.65;;;5.30;;
62861;SDS011;48953;53.110;5.592;2023-04-27T01:42:32;14.10;;;5.57;;
62861;SDS011;48953;53.110;5.592;2023-04-27T01:44:58;12.95;;;5.68;;
62861;SDS011;48953;53.110;5.592;2023-04-27T01:47:24;8.27;;;4.63;;
62861;SDS011;48953;53.110;5.592;2023-04-27T01:49:50;10.23;;;4.75;;
62861;SDS011;48953;53.110;5.592;2023-04-27T01:52:16;11.30;;;5.72;;
62861;SDS011;48953;53.110;5.592;2023-04-27T01:54:43;13.35;;;5.38;;
62861;SDS011;48953;53.110;5.592;2023-04-27T01:57:09;8.55;;;5.13;;
62861;SDS011;48953;53.110;5.592;2023-04-27T01:59:34;13.88;;;5.68;;
62861;SDS011;48953;53.110;5.592;2023-04-27T02:02:00;13.88;;;4.82;;
62861;SDS011;48953;53.110;5.592;2023-04-27T02:04:26;8.13;;;4.72;;
62861;SDS011;48953;53.110;5.592;2023-04-27T02:06:52;9.80;;;4.90;;
62861;SDS011;48953;53.110;5.592;2023-04-27T02:09:18;10.65;;;5.30;;
62861;SDS011;48953;53.110;5.592;2023-04-27T02:11:44;10.45;;;5.20;;
62861;SDS011;48953;53.110;5.592;2023-04-27T02:14:10;11.48;;;5.20;;
62861;SDS011;48953;53.110;5.592;2023-04-27T02:16:36;9.65;;;5.32;;
62861;SDS011;48953;53.110;5.592;2023-04-27T02:19:02;13.43;;;5.57;;
62861;SDS011;48953;53.110;5.592;2023-04-27T02:21:29;9.18;;;4.72;;
62861;SDS011;48953;53.110;5.592;2023-04-27T02:23:54;9.48;;;4.78;;
62861;SDS011;48953;53.110;5.592;2023-04-27T02:26:35;10.25;;;4.72;;
62861;SDS011;48953;53.110;5.592;2023-04-27T02:31:58;13.20;;;4.90;;
62861;SDS011;48953;53.110;5.592;2023-04-27T02:34:24;9.10;;;4.10;;
62861;SDS011;48953;53.110;5.592;2023-04-27T02:36:50;8.15;;;4.80;;
62861;SDS011;48953;53.110;5.592;2023-04-27T02:39:16;9.30;;;4.60;;
62861;SDS011;48953;53.110;5.592;2023-04-27T02:41:42;10.55;;;5.20;;
62861;SDS011;48953;53.110;5.592;2023-04-27T02:44:08;10.23;;;5.15;;
62861;SDS011;48953;53.110;5.592;2023-04-27T02:46:34;13.18;;;4.93;;
62861;SDS011;48953;53.110;5.592;2023-04-27T02:49:00;10.15;;;4.30;;
62861;SDS011;48953;53.110;5.592;2023-04-27T02:51:26;8.38;;;4.63;;
62861;SDS011;48953;53.110;5.592;2023-04-27T02:53:52;8.35;;;4.25;;
62861;SDS011;48953;53.110;5.592;2023-04-27T02:56:18;9.10;;;4.45;;
62861;SDS011;48953;53.110;5.592;2023-04-27T02:58:44;9.85;;;4.50;;
62861;SDS011;48953;53.110;5.592;2023-04-27T03:01:11;11.52;;;5.38;;
62861;SDS011;48953;53.110;5.592;2023-04-27T03:03:37;9.80;;;5.22;;
62861;SDS011;48953;53.110;5.592;2023-04-27T03:06:03;10.85;;;5.00;;
62861;SDS011;48953;53.110;5.592;2023-04-27T03:11:25;10.18;;;4.50;;
62861;SDS011;48953;53.110;5.592;2023-04-27T03:13:51;11.80;;;5.85;;
62861;SDS011;48953;53.110;5.592;2023-04-27T03:16:17;9.15;;;5.05;;
62861;SDS011;48953;53.110;5.592;2023-04-27T03:18:43;8.32;;;4.32;;
62861;SDS011;48953;53.110;5.592;2023-04-27T03:21:09;9.38;;;4.88;;
62861;SDS011;48953;53.110;5.592;2023-04-27T03:23:36;7.30;;;3.90;;
62861;SDS011;48953;53.110;5.592;2023-04-27T03:26:09;7.88;;;4.20;;
62861;SDS011;48953;53.110;5.592;2023-04-27T03:28:35;11.23;;;3.90;;
62861;SDS011;48953;53.110;5.592;2023-04-27T03:31:05;5.70;;;3.53;;
62861;SDS011;48953;53.110;5.592;2023-04-27T03:33:31;6.78;;;4.47;;
62861;SDS011;48953;53.110;5.592;2023-04-27T03:35:57;7.45;;;4.03;;
62861;SDS011;48953;53.110;5.592;2023-04-27T03:38:24;8.43;;;3.78;;
62861;SDS011;48953;53.110;5.592;2023-04-27T03:40:50;8.30;;;4.30;;
62861;SDS011;48953;53.110;5.592;2023-04-27T03:43:17;7.00;;;3.60;;
62861;SDS011;48953;53.110;5.592;2023-04-27T03:45:43;6.00;;;3.42;;
62861;SDS011;48953;53.110;5.592;2023-04-27T03:48:09;6.07;;;3.40;;
62861;SDS011;48953;53.110;5.592;2023-04-27T03:50:35;5.88;;;3.47;;
62861;SDS011;48953;53.110;5.592;2023-04-27T03:53:01;7.60;;;3.47;;
62861;SDS011;48953;53.110;5.592;2023-04-27T03:55:27;7.80;;;3.72;;
62861;SDS011;48953;53.110;5.592;2023-04-27T03:57:53;6.75;;;3.65;;
62861;SDS011;48953;53.110;5.592;2023-04-27T04:00:19;7.43;;;3.80;;
62861;SDS011;48953;53.110;5.592;2023-04-27T04:02:45;7.38;;;3.70;;
62861;SDS011;48953;53.110;5.592;2023-04-27T04:05:11;12.25;;;4.10;;
62861;SDS011;48953;53.110;5.592;2023-04-27T04:07:39;9.23;;;3.67;;
62861;SDS011;48953;53.110;5.592;2023-04-27T04:10:06;7.22;;;3.53;;
62861;SDS011;48953;53.110;5.592;2023-04-27T04:12:32;11.63;;;4.32;;
62861;SDS011;48953;53.110;5.592;2023-04-27T04:14:58;11.52;;;4.25;;
62861;SDS011;48953;53.110;5.592;2023-04-27T04:17:24;7.20;;;4.07;;
62861;SDS011;48953;53.110;5.592;2023-04-27T04:19:51;10.57;;;4.28;;
62861;SDS011;48953;53.110;5.592;2023-04-27T04:22:17;7.78;;;4.13;;
62861;SDS011;48953;53.110;5.592;2023-04-27T04:24:42;7.80;;;3.70;;
62861;SDS011;48953;53.110;5.592;2023-04-27T04:27:08;12.50;;;4.70;;
62861;SDS011;48953;53.110;5.592;2023-04-27T04:29:34;10.77;;;4.30;;
62861;SDS011;48953;53.110;5.592;2023-04-27T04:32:20;14.13;;;4.72;;
62861;SDS011;48953;53.110;5.592;2023-04-27T04:34:47;7.95;;;3.83;;
62861;SDS011;48953;53.110;5.592;2023-04-27T04:37:15;9.10;;;3.90;;
62861;SDS011;48953;53.110;5.592;2023-04-27T04:39:42;7.50;;;3.97;;
62861;SDS011;48953;53.110;5.592;2023-04-27T04:42:08;6.28;;;3.53;;
62861;SDS011;48953;53.110;5.592;2023-04-27T04:44:34;11.43;;;4.30;;
62861;SDS011;48953;53.110;5.592;2023-04-27T04:47:00;10.30;;;4.13;;
62861;SDS011;48953;53.110;5.592;2023-04-27T04:49:26;9.23;;;4.20;;
62861;SDS011;48953;53.110;5.592;2023-04-27T04:51:52;8.73;;;4.40;;
62861;SDS011;48953;53.110;5.592;2023-04-27T04:54:18;7.38;;;3.63;;
62861;SDS011;48953;53.110;5.592;2023-04-27T04:56:44;11.05;;;4.30;;
62861;SDS011;48953;53.110;5.592;2023-04-27T04:59:10;10.32;;;4.32;;
62861;SDS011;48953;53.110;5.592;2023-04-27T05:01:36;7.78;;;4.05;;
62861;SDS011;48953;53.110;5.592;2023-04-27T05:04:02;10.55;;;4.10;;
62861;SDS011;48953;53.110;5.592;2023-04-27T05:06:28;6.80;;;3.95;;
62861;SDS011;48953;53.110;5.592;2023-04-27T05:08:54;11.57;;;4.20;;
62861;SDS011;48953;53.110;5.592;2023-04-27T05:11:20;10.77;;;4.20;;
62861;SDS011;48953;53.110;5.592;2023-04-27T05:14:02;7.97;;;4.20;;
62861;SDS011;48953;53.110;5.592;2023-04-27T05:16:28;9.57;;;4.05;;
62861;SDS011;48953;53.110;5.592;2023-04-27T05:18:54;10.77;;;4.15;;
62861;SDS011;48953;53.110;5.592;2023-04-27T05:21:21;8.77;;;3.90;;
62861;SDS011;48953;53.110;5.592;2023-04-27T05:23:46;9.20;;;4.45;;
62861;SDS011;48953;53.110;5.592;2023-04-27T05:26:13;8.77;;;4.38;;
62861;SDS011;48953;53.110;5.592;2023-04-27T05:28:39;13.57;;;4.35;;
62861;SDS011;48953;53.110;5.592;2023-04-27T05:31:06;10.13;;;4.13;;
62861;SDS011;48953;53.110;5.592;2023-04-27T05:33:32;8.50;;;3.72;;
62861;SDS011;48953;53.110;5.592;2023-04-27T05:35:58;7.95;;;3.30;;
62861;SDS011;48953;53.110;5.592;2023-04-27T05:38:24;6.90;;;3.33;;
62861;SDS011;48953;53.110;5.592;2023-04-27T05:40:56;5.85;;;3.67;;
62861;SDS011;48953;53.110;5.592;2023-04-27T05:43:23;4.25;;;3.00;;
62861;SDS011;48953;53.110;5.592;2023-04-27T05:45:49;4.35;;;3.22;;
62861;SDS011;48953;53.110;5.592;2023-04-27T05:48:15;5.15;;;3.13;;
62861;SDS011;48953;53.110;5.592;2023-04-27T05:50:41;4.38;;;3.00;;
62861;SDS011;48953;53.110;5.592;2023-04-27T05:53:07;5.40;;;3.35;;
62861;SDS011;48953;53.110;5.592;2023-04-27T05:55:33;4.50;;;2.80;;
62861;SDS011;48953;53.110;5.592;2023-04-27T05:58:00;3.55;;;2.55;;
62861;SDS011;48953;53.110;5.592;2023-04-27T06:00:37;3.75;;;2.65;;
62861;SDS011;48953;53.110;5.592;2023-04-27T06:03:03;3.85;;;2.45;;
62861;SDS011;48953;53.110;5.592;2023-04-27T06:05:29;5.07;;;2.78;;
62861;SDS011;48953;53.110;5.592;2023-04-27T06:07:55;3.20;;;2.90;;
62861;SDS011;48953;53.110;5.592;2023-04-27T06:10:21;4.97;;;3.10;;
62861;SDS011;48953;53.110;5.592;2023-04-27T06:12:47;4.18;;;2.50;;
62861;SDS011;48953;53.110;5.592;2023-04-27T06:15:13;4.43;;;2.75;;
62861;SDS011;48953;53.110;5.592;2023-04-27T06:17:39;3.42;;;2.65;;
62861;SDS011;48953;53.110;5.592;2023-04-27T06:20:07;6.13;;;3.13;;
62861;SDS011;48953;53.110;5.592;2023-04-27T06:22:37;3.60;;;2.80;;
62861;SDS011;48953;53.110;5.592;2023-04-27T06:25:03;7.83;;;3.13;;
62861;SDS011;48953;53.110;5.592;2023-04-27T06:27:29;3.45;;;2.80;;
62861;SDS011;48953;53.110;5.592;2023-04-27T06:29:55;4.70;;;3.22;;
62861;SDS011;48953;53.110;5.592;2023-04-27T06:32:21;5.82;;;2.95;;
62861;SDS011;48953;53.110;5.592;2023-04-27T06:34:48;6.40;;;3.17;;
62861;SDS011;48953;53.110;5.592;2023-04-27T06:37:14;4.13;;;3.08;;
62861;SDS011;48953;53.110;5.592;2023-04-27T06:39:42;5.00;;;3.13;;
62861;SDS011;48953;53.110;5.592;2023-04-27T06:42:15;4.50;;;2.85;;
62861;SDS011;48953;53.110;5.592;2023-04-27T06:44:41;3.35;;;2.50;;
62861;SDS011;48953;53.110;5.592;2023-04-27T06:47:07;8.25;;;3.05;;
62861;SDS011;48953;53.110;5.592;2023-04-27T06:49:33;3.13;;;2.08;;
62861;SDS011;48953;53.110;5.592;2023-04-27T06:52:00;4.80;;;2.58;;
62861;SDS011;48953;53.110;5.592;2023-04-27T06:54:26;3.58;;;2.58;;
62861;SDS011;48953;53.110;5.592;2023-04-27T06:56:52;2.80;;;2.50;;
62861;SDS011;48953;53.110;5.592;2023-04-27T06:59:18;3.60;;;2.70;;
62861;SDS011;48953;53.110;5.592;2023-04-27T07:01:45;5.30;;;2.30;;
62861;SDS011;48953;53.110;5.592;2023-04-27T07:04:11;4.03;;;2.35;;
62861;SDS011;48953;53.110;5.592;2023-04-27T07:06:37;3.85;;;2.50;;
62861;SDS011;48953;53.110;5.592;2023-04-27T07:09:08;3.72;;;2.28;;
62861;SDS011;48953;53.110;5.592;2023-04-27T07:11:34;2.42;;;2.10;;
62861;SDS011;48953;53.110;5.592;2023-04-27T07:14:00;5.32;;;2.40;;
62861;SDS011;48953;53.110;5.592;2023-04-27T07:16:26;4.00;;;2.00;;
62861;SDS011;48953;53.110;5.592;2023-04-27T07:18:52;2.78;;;1.85;;
62861;SDS011;48953;53.110;5.592;2023-04-27T07:21:18;2.05;;;1.65;;
62861;SDS011;48953;53.110;5.592;2023-04-27T07:23:44;2.63;;;1.63;;
62861;SDS011;48953;53.110;5.592;2023-04-27T07:26:10;3.72;;;1.90;;
62861;SDS011;48953;53.110;5.592;2023-04-27T07:28:37;2.30;;;1.50;;
62861;SDS011;48953;53.110;5.592;2023-04-27T07:31:03;2.85;;;1.90;;
62861;SDS011;48953;53.110;5.592;2023-04-27T07:33:29;2.72;;;1.63;;
62861;SDS011;48953;53.110;5.592;2023-04-27T07:35:55;4.75;;;1.98;;
62861;SDS011;48953;53.110;5.592;2023-04-27T07:38:22;4.30;;;1.65;;
62861;SDS011;48953;53.110;5.592;2023-04-27T07:40:48;4.25;;;1.80;;
62861;SDS011;48953;53.110;5.592;2023-04-27T07:43:15;2.90;;;1.70;;
62861;SDS011;48953;53.110;5.592;2023-04-27T07:45:42;4.47;;;1.77;;
62861;SDS011;48953;53.110;5.592;2023-04-27T07:48:14;4.32;;;1.75;;
62861;SDS011;48953;53.110;5.592;2023-04-27T07:50:40;5.32;;;2.65;;
62861;SDS011;48953;53.110;5.592;2023-04-27T07:53:06;2.97;;;2.05;;
62861;SDS011;48953;53.110;5.592;2023-04-27T07:55:32;5.32;;;3.55;;
62861;SDS011;48953;53.110;5.592;2023-04-27T07:57:58;2.97;;;2.08;;
62861;SDS011;48953;53.110;5.592;2023-04-27T08:00:24;4.75;;;2.10;;
62861;SDS011;48953;53.110;5.592;2023-04-27T08:02:51;2.83;;;2.08;;
62861;SDS011;48953;53.110;5.592;2023-04-27T08:05:18;4.18;;;1.75;;
62861;SDS011;48953;53.110;5.592;2023-04-27T08:07:44;4.60;;;2.30;;
62861;SDS011;48953;53.110;5.592;2023-04-27T08:10:10;3.53;;;1.90;;
62861;SDS011;48953;53.110;5.592;2023-04-27T08:12:36;3.92;;;2.03;;
62861;SDS011;48953;53.110;5.592;2023-04-27T08:15:03;3.13;;;1.92;;
62861;SDS011;48953;53.110;5.592;2023-04-27T08:17:29;6.57;;;2.20;;
62861;SDS011;48953;53.110;5.592;2023-04-27T08:19:55;2.47;;;1.70;;
62861;SDS011;48953;53.110;5.592;2023-04-27T08:22:21;3.45;;;1.70;;
62861;SDS011;48953;53.110;5.592;2023-04-27T08:24:47;2.70;;;1.77;;
62861;SDS011;48953;53.110;5.592;2023-04-27T08:27:13;3.78;;;2.00;;
62861;SDS011;48953;53.110;5.592;2023-04-27T08:29:46;3.83;;;1.77;;
62861;SDS011;48953;53.110;5.592;2023-04-27T08:32:12;3.72;;;1.67;;
62861;SDS011;48953;53.110;5.592;2023-04-27T08:34:46;3.40;;;1.73;;
62861;SDS011;48953;53.110;5.592;2023-04-27T08:37:12;3.50;;;1.80;;
62861;SDS011;48953;53.110;5.592;2023-04-27T08:39:38;2.22;;;1.90;;
62861;SDS011;48953;53.110;5.592;2023-04-27T08:42:10;3.10;;;1.90;;
62861;SDS011;48953;53.110;5.592;2023-04-27T08:44:40;4.38;;;1.85;;
62861;SDS011;48953;53.110;5.592;2023-04-27T08:47:06;3.33;;;1.67;;
62861;SDS011;48953;53.110;5.592;2023-04-27T08:49:33;6.18;;;1.73;;
62861;SDS011;48953;53.110;5.592;2023-04-27T08:52:00;3.53;;;1.50;;
62861;SDS011;48953;53.110;5.592;2023-04-27T08:54:26;2.90;;;1.67;;
62861;SDS011;48953;53.110;5.592;2023-04-27T08:56:52;2.35;;;1.73;;
62861;SDS011;48953;53.110;5.592;2023-04-27T08:59:18;3.10;;;1.77;;
62861;SDS011;48953;53.110;5.592;2023-04-27T09:01:44;2.45;;;1.63;;
62861;SDS011;48953;53.110;5.592;2023-04-27T09:04:12;2.55;;;1.40;;
62861;SDS011;48953;53.110;5.592;2023-04-27T09:06:44;2.38;;;1.63;;
62861;SDS011;48953;53.110;5.592;2023-04-27T09:09:19;2.60;;;1.55;;
62861;SDS011;48953;53.110;5.592;2023-04-27T09:11:46;2.67;;;1.45;;
62861;SDS011;48953;53.110;5.592;2023-04-27T09:14:14;3.83;;;1.52;;
62861;SDS011;48953;53.110;5.592;2023-04-27T09:16:41;5.22;;;1.77;;
62861;SDS011;48953;53.110;5.592;2023-04-27T09:19:07;4.05;;;1.55;;
62861;SDS011;48953;53.110;5.592;2023-04-27T09:21:33;1.92;;;1.40;;
62861;SDS011;48953;53.110;5.592;2023-04-27T09:24:08;2.70;;;1.75;;
62861;SDS011;48953;53.110;5.592;2023-04-27T09:26:34;2.78;;;1.80;;
62861;SDS011;48953;53.110;5.592;2023-04-27T09:29:01;2.05;;;1.30;;
62861;SDS011;48953;53.110;5.592;2023-04-27T09:31:31;2.88;;;1.73;;
62861;SDS011;48953;53.110;5.592;2023-04-27T09:36:23;1.92;;;1.48;;
62861;SDS011;48953;53.110;5.592;2023-04-27T09:38:52;2.10;;;1.50;;
62861;SDS011;48953;53.110;5.592;2023-04-27T09:43:49;2.47;;;1.60;;
62861;SDS011;48953;53.110;5.592;2023-04-27T09:46:15;1.67;;;1.48;;
62861;SDS011;48953;53.110;5.592;2023-04-27T09:48:41;2.25;;;1.60;;
62861;SDS011;48953;53.110;5.592;2023-04-27T09:51:07;4.90;;;1.88;;
62861;SDS011;48953;53.110;5.592;2023-04-27T09:53:40;6.65;;;3.15;;
62861;SDS011;48953;53.110;5.592;2023-04-27T09:56:26;7.32;;;2.92;;
62861;SDS011;48953;53.110;5.592;2023-04-27T10:01:38;4.85;;;2.72;;
62861;SDS011;48953;53.110;5.592;2023-04-27T10:07:01;4.32;;;3.10;;
62861;SDS011;48953;53.110;5.592;2023-04-27T10:09:33;4.32;;;3.30;;
62861;SDS011;48953;53.110;5.592;2023-04-27T10:12:12;3.70;;;2.00;;
62861;SDS011;48953;53.110;5.592;2023-04-27T10:14:46;5.25;;;2.50;;
62861;SDS011;48953;53.110;5.592;2023-04-27T10:17:12;3.92;;;1.75;;
62861;SDS011;48953;53.110;5.592;2023-04-27T10:19:38;6.35;;;1.83;;
62861;SDS011;48953;53.110;5.592;2023-04-27T10:22:13;3.67;;;1.90;;
62861;SDS011;48953;53.110;5.592;2023-04-27T10:24:41;4.38;;;1.92;;
62861;SDS011;48953;53.110;5.592;2023-04-27T10:27:09;4.43;;;2.22;;
62861;SDS011;48953;53.110;5.592;2023-04-27T10:32:27;3.95;;;2.78;;
62861;SDS011;48953;53.110;5.592;2023-04-27T10:35:01;4.68;;;2.75;;
62861;SDS011;48953;53.110;5.592;2023-04-27T10:37:37;4.55;;;2.67;;
62861;SDS011;48953;53.110;5.592;2023-04-27T10:40:05;3.42;;;2.42;;
62861;SDS011;48953;53.110;5.592;2023-04-27T10:42:32;5.32;;;2.60;;
62861;SDS011;48953;53.110;5.592;2023-04-27T10:44:58;4.15;;;2.00;;
62861;SDS011;48953;53.110;5.592;2023-04-27T10:47:24;3.17;;;1.92;;
62861;SDS011;48953;53.110;5.592;2023-04-27T10:50:00;6.20;;;2.80;;
62861;SDS011;48953;53.110;5.592;2023-04-27T10:52:27;4.15;;;2.00;;
62861;SDS011;48953;53.110;5.592;2023-04-27T10:54:53;2.50;;;1.90;;
62861;SDS011;48953;53.110;5.592;2023-04-27T10:57:19;5.18;;;2.20;;
62861;SDS011;48953;53.110;5.592;2023-04-27T10:59:49;5.05;;;2.30;;
62861;SDS011;48953;53.110;5.592;2023-04-27T11:02:15;6.47;;;2.30;;
62861;SDS011;48953;53.110;5.592;2023-04-27T11:04:43;5.93;;;2.42;;
62861;SDS011;48953;53.110;5.592;2023-04-27T11:07:09;4.25;;;2.58;;
62861;SDS011;48953;53.110;5.592;2023-04-27T11:09:36;3.90;;;2.30;;
62861;SDS011;48953;53.110;5.592;2023-04-27T11:12:05;4.40;;;2.47;;
62861;SDS011;48953;53.110;5.592;2023-04-27T11:14:32;4.25;;;2.50;;
62861;SDS011;48953;53.110;5.592;2023-04-27T11:16:59;4.35;;;2.70;;
62861;SDS011;48953;53.110;5.592;2023-04-27T11:19:25;3.80;;;2.78;;
62861;SDS011;48953;53.110;5.592;2023-04-27T11:21:51;4.53;;;2.70;;
62861;SDS011;48953;53.110;5.592;2023-04-27T11:24:17;5.35;;;2.78;;
62861;SDS011;48953;53.110;5.592;2023-04-27T11:26:43;3.30;;;2.78;;
62861;SDS011;48953;53.110;5.592;2023-04-27T11:29:16;2.95;;;2.60;;
62861;SDS011;48953;53.110;5.592;2023-04-27T11:31:45;4.95;;;2.80;;
62861;SDS011;48953;53.110;5.592;2023-04-27T11:34:21;3.42;;;2.80;;
62861;SDS011;48953;53.110;5.592;2023-04-27T11:37:00;4.22;;;2.90;;
62861;SDS011;48953;53.110;5.592;2023-04-27T11:39:33;5.20;;;3.10;;
62861;SDS011;48953;53.110;5.592;2023-04-27T11:42:19;4.53;;;2.50;;
62861;SDS011;48953;53.110;5.592;2023-04-27T11:44:58;3.83;;;2.50;;
62861;SDS011;48953;53.110;5.592;2023-04-27T11:47:25;4.20;;;2.67;;
62861;SDS011;48953;53.110;5.592;2023-04-27T11:49:56;4.10;;;2.58;;
62861;SDS011;48953;53.110;5.592;2023-04-27T11:52:32;5.00;;;2.78;;
62861;SDS011;48953;53.110;5.592;2023-04-27T11:54:59;3.90;;;2.53;;
62861;SDS011;48953;53.110;5.592;2023-04-27T11:59:52;3.13;;;2.65;;
62861;SDS011;48953;53.110;5.592;2023-04-27T12:02:18;4.32;;;2.92;;
62861;SDS011;48953;53.110;5.592;2023-04-27T12:04:46;6.22;;;3.03;;
62861;SDS011;48953;53.110;5.592;2023-04-27T12:07:12;4.65;;;2.55;;
62861;SDS011;48953;53.110;5.592;2023-04-27T12:09:38;4.60;;;3.28;;
62861;SDS011;48953;53.110;5.592;2023-04-27T12:12:05;4.95;;;2.72;;
62861;SDS011;48953;53.110;5.592;2023-04-27T12:14:31;3.80;;;2.90;;
62861;SDS011;48953;53.110;5.592;2023-04-27T12:16:57;4.00;;;2.90;;
62861;SDS011;48953;53.110;5.592;2023-04-27T12:19:23;5.93;;;3.22;;
62861;SDS011;48953;53.110;5.592;2023-04-27T12:21:52;5.65;;;3.00;;
62861;SDS011;48953;53.110;5.592;2023-04-27T12:24:18;4.63;;;3.30;;
62861;SDS011;48953;53.110;5.592;2023-04-27T12:26:44;3.80;;;2.85;;
62861;SDS011;48953;53.110;5.592;2023-04-27T12:29:11;7.32;;;3.15;;
62861;SDS011;48953;53.110;5.592;2023-04-27T12:31:37;5.07;;;3.35;;
62861;SDS011;48953;53.110;5.592;2023-04-27T12:34:04;5.40;;;3.40;;
62861;SDS011;48953;53.110;5.592;2023-04-27T12:36:30;4.03;;;3.53;;
62861;SDS011;48953;53.110;5.592;2023-04-27T12:38:57;5.50;;;3.20;;
62861;SDS011;48953;53.110;5.592;2023-04-27T12:41:23;5.78;;;3.58;;
62861;SDS011;48953;53.110;5.592;2023-04-27T12:43:49;5.63;;;3.25;;
62861;SDS011;48953;53.110;5.592;2023-04-27T12:46:16;4.00;;;2.90;;
62861;SDS011;48953;53.110;5.592;2023-04-27T12:48:42;5.13;;;2.92;;
62861;SDS011;48953;53.110;5.592;2023-04-27T12:51:08;4.28;;;2.38;;
62861;SDS011;48953;53.110;5.592;2023-04-27T12:53:34;5.22;;;3.20;;
62861;SDS011;48953;53.110;5.592;2023-04-27T12:56:01;5.00;;;3.30;;
62861;SDS011;48953;53.110;5.592;2023-04-27T12:58:28;3.97;;;2.92;;
62861;SDS011;48953;53.110;5.592;2023-04-27T13:00:55;7.07;;;3.97;;
62861;SDS011;48953;53.110;5.592;2023-04-27T13:03:22;7.03;;;3.53;;
62861;SDS011;48953;53.110;5.592;2023-04-27T13:05:48;6.95;;;3.55;;
62861;SDS011;48953;53.110;5.592;2023-04-27T13:08:14;4.35;;;3.08;;
62861;SDS011;48953;53.110;5.592;2023-04-27T13:10:40;3.83;;;3.40;;
62861;SDS011;48953;53.110;5.592;2023-04-27T13:13:22;7.28;;;3.47;;
62861;SDS011;48953;53.110;5.592;2023-04-27T13:15:49;4.85;;;3.20;;
62861;SDS011;48953;53.110;5.592;2023-04-27T13:18:15;7.07;;;3.30;;
62861;SDS011;48953;53.110;5.592;2023-04-27T13:20:41;8.30;;;3.45;;
62861;SDS011;48953;53.110;5.592;2023-04-27T13:23:08;5.72;;;3.65;;
62861;SDS011;48953;53.110;5.592;2023-04-27T13:25:34;4.32;;;3.38;;
62861;SDS011;48953;53.110;5.592;2023-04-27T13:28:00;3.65;;;3.10;;
62861;SDS011;48953;53.110;5.592;2023-04-27T13:30:26;4.75;;;3.63;;
62861;SDS011;48953;53.110;5.592;2023-04-27T13:32:52;5.32;;;3.58;;
62861;SDS011;48953;53.110;5.592;2023-04-27T13:35:18;7.60;;;4.05;;
62861;SDS011;48953;53.110;5.592;2023-04-27T13:37:44;4.03;;;3.28;;
62861;SDS011;48953;53.110;5.592;2023-04-27T13:40:12;4.85;;;3.95;;
62861;SDS011;48953;53.110;5.592;2023-04-27T13:42:38;7.18;;;3.17;;
62861;SDS011;48953;53.110;5.592;2023-04-27T13:45:04;5.38;;;4.07;;
62861;SDS011;48953;53.110;5.592;2023-04-27T13:47:31;6.07;;;3.90;;
62861;SDS011;48953;53.110;5.592;2023-04-27T13:50:04;6.22;;;3.65;;
62861;SDS011;48953;53.110;5.592;2023-04-27T13:52:30;7.13;;;4.05;;
62861;SDS011;48953;53.110;5.592;2023-04-27T13:55:08;6.28;;;3.97;;
62861;SDS011;48953;53.110;5.592;2023-04-27T13:57:34;6.32;;;4.18;;
62861;SDS011;48953;53.110;5.592;2023-04-27T14:00:00;4.93;;;3.92;;
62861;SDS011;48953;53.110;5.592;2023-04-27T14:02:27;9.93;;;3.63;;
62861;SDS011;48953;53.110;5.592;2023-04-27T14:04:54;5.07;;;3.78;;
62861;SDS011;48953;53.110;5.592;2023-04-27T14:07:20;7.22;;;3.85;;
62861;SDS011;48953;53.110;5.592;2023-04-27T14:09:46;6.15;;;3.85;;
62861;SDS011;48953;53.110;5.592;2023-04-27T14:12:12;5.55;;;3.67;;
62861;SDS011;48953;53.110;5.592;2023-04-27T14:14:38;4.93;;;3.75;;
62861;SDS011;48953;53.110;5.592;2023-04-27T14:17:04;6.85;;;3.60;;
62861;SDS011;48953;53.110;5.592;2023-04-27T14:19:30;5.03;;;4.13;;
62861;SDS011;48953;53.110;5.592;2023-04-27T14:21:57;7.15;;;3.90;;
62861;SDS011;48953;53.110;5.592;2023-04-27T14:24:23;4.68;;;3.70;;
62861;SDS011;48953;53.110;5.592;2023-04-27T14:26:49;8.40;;;4.03;;
62861;SDS011;48953;53.110;5.592;2023-04-27T14:29:15;5.65;;;3.92;;
62861;SDS011;48953;53.110;5.592;2023-04-27T14:31:42;5.75;;;3.97;;
62861;SDS011;48953;53.110;5.592;2023-04-27T14:34:08;6.53;;;3.90;;
62861;SDS011;48953;53.110;5.592;2023-04-27T14:36:34;5.80;;;3.83;;
62861;SDS011;48953;53.110;5.592;2023-04-27T14:41:55;5.55;;;3.90;;
62861;SDS011;48953;53.110;5.592;2023-04-27T14:44:22;6.03;;;3.67;;
62861;SDS011;48953;53.110;5.592;2023-04-27T14:46:48;5.43;;;3.60;;
62861;SDS011;48953;53.110;5.592;2023-04-27T14:49:14;7.10;;;4.18;;
62861;SDS011;48953;53.110;5.592;2023-04-27T14:51:40;6.72;;;3.70;;
62861;SDS011;48953;53.110;5.592;2023-04-27T14:54:06;7.63;;;3.83;;
62861;SDS011;48953;53.110;5.592;2023-04-27T14:56:33;8.73;;;4.30;;
62861;SDS011;48953;53.110;5.592;2023-04-27T14:58:59;5.15;;;3.92;;
62861;SDS011;48953;53.110;5.592;2023-04-27T15:01:25;13.82;;;7.30;;
62861;SDS011;48953;53.110;5.592;2023-04-27T15:04:08;9.93;;;4.53;;
62861;SDS011;48953;53.110;5.592;2023-04-27T15:06:34;4.90;;;3.30;;
62861;SDS011;48953;53.110;5.592;2023-04-27T15:09:00;6.28;;;3.75;;
62861;SDS011;48953;53.110;5.592;2023-04-27T15:11:28;5.10;;;3.08;;
62861;SDS011;48953;53.110;5.592;2023-04-27T15:13:54;6.03;;;3.70;;
62861;SDS011;48953;53.110;5.592;2023-04-27T15:16:20;5.53;;;4.03;;
62861;SDS011;48953;53.110;5.592;2023-04-27T15:18:46;6.10;;;4.45;;
62861;SDS011;48953;53.110;5.592;2023-04-27T15:21:12;4.40;;;3.35;;
62861;SDS011;48953;53.110;5.592;2023-04-27T15:23:38;7.13;;;4.13;;
62861;SDS011;48953;53.110;5.592;2023-04-27T15:26:04;6.03;;;3.38;;